createdAt,value
2018-12-25T00:00:56.277Z,6.33
2018-12-25T00:03:23.656Z,5.70
2018-12-25T00:05:51.073Z,4.27
2018-12-25T00:08:18.766Z,5.20
2018-12-25T00:10:46.256Z,4.37
2018-12-25T00:13:13.860Z,4.10
2018-12-25T00:15:41.273Z,4.77
2018-12-25T00:18:10.334Z,4.27
2018-12-25T00:20:37.793Z,4.30
2018-12-25T00:23:05.203Z,4.50
2018-12-25T00:25:32.624Z,5.27
2018-12-25T00:28:00.032Z,5.70
2018-12-25T00:30:27.332Z,4.77
2018-12-25T00:32:54.840Z,4.33
2018-12-25T00:35:22.543Z,4.03
2018-12-25T00:37:49.901Z,5.80
2018-12-25T00:40:17.300Z,6.00
2018-12-25T00:42:44.765Z,6.30
2018-12-25T00:45:12.176Z,10.23
2018-12-25T00:47:39.670Z,8.90
2018-12-25T00:50:07.135Z,8.00
2018-12-25T00:52:34.648Z,7.70
2018-12-25T00:55:02.008Z,10.23
2018-12-25T00:57:29.914Z,15.67
2018-12-25T00:59:57.296Z,13.33
2018-12-25T01:02:24.641Z,19.67
2018-12-25T01:04:52.208Z,12.17
2018-12-25T01:07:19.597Z,17.23
2018-12-25T01:09:47.073Z,10.90
2018-12-25T01:12:14.428Z,12.90
2018-12-25T01:14:41.858Z,12.70
2018-12-25T01:17:09.262Z,8.03
2018-12-25T01:19:36.654Z,7.80
2018-12-25T01:22:04.201Z,8.63
2018-12-25T01:24:31.660Z,8.73
2018-12-25T01:26:59.131Z,8.93
2018-12-25T01:29:26.517Z,8.73
2018-12-25T01:31:53.984Z,8.33
2018-12-25T01:34:21.483Z,9.57
2018-12-25T01:36:48.889Z,8.13
2018-12-25T01:39:16.318Z,8.20
2018-12-25T01:41:43.802Z,9.03
2018-12-25T01:44:11.211Z,9.30
2018-12-25T01:46:38.622Z,9.97
2018-12-25T01:49:07.608Z,10.23
2018-12-25T01:51:34.967Z,8.97
2018-12-25T01:54:02.515Z,9.37
2018-12-25T01:56:30.075Z,8.50
2018-12-25T01:58:57.511Z,7.87
2018-12-25T02:01:24.870Z,8.70
2018-12-25T02:03:52.291Z,7.93
2018-12-25T02:06:19.674Z,7.63
2018-12-25T02:08:46.964Z,8.33
2018-12-25T02:11:14.990Z,8.83
2018-12-25T02:13:42.311Z,10.00
2018-12-25T02:16:09.640Z,10.97
2018-12-25T02:18:37.216Z,10.20
2018-12-25T02:21:04.630Z,10.73
2018-12-25T02:23:32.024Z,10.67
2018-12-25T02:25:59.438Z,10.60
2018-12-25T02:28:26.752Z,11.67
2018-12-25T02:30:55.394Z,11.47
2018-12-25T02:33:22.832Z,10.50
2018-12-25T02:35:50.301Z,10.93
2018-12-25T02:38:17.761Z,10.50
2018-12-25T02:40:45.256Z,9.70
2018-12-25T02:43:12.640Z,10.03
2018-12-25T02:45:40.215Z,11.07
2018-12-25T02:48:07.707Z,10.70
2018-12-25T02:50:37.895Z,12.07
2018-12-25T02:53:05.307Z,11.57
2018-12-25T02:55:32.995Z,11.23
2018-12-25T02:58:00.336Z,11.63
2018-12-25T03:00:27.679Z,11.03
2018-12-25T03:02:55.133Z,10.70
2018-12-25T03:05:22.525Z,11.57
2018-12-25T03:07:49.922Z,11.30
2018-12-25T03:10:18.973Z,11.90
2018-12-25T03:12:46.441Z,10.90
2018-12-25T03:15:13.788Z,11.93
2018-12-25T03:17:42.895Z,11.07
2018-12-25T03:20:10.375Z,11.13
2018-12-25T03:22:37.711Z,11.20
2018-12-25T03:25:05.262Z,11.30
2018-12-25T03:27:33.275Z,11.97
2018-12-25T03:30:00.810Z,11.37
2018-12-25T03:32:28.192Z,10.90
2018-12-25T03:34:55.596Z,11.10
2018-12-25T03:37:23.014Z,11.77
2018-12-25T03:39:50.514Z,11.37
2018-12-25T03:42:17.859Z,9.63
2018-12-25T03:44:45.353Z,10.53
2018-12-25T03:47:12.920Z,10.37
2018-12-25T03:49:40.341Z,10.00
2018-12-25T03:52:07.883Z,11.80
2018-12-25T03:54:35.833Z,10.77
2018-12-25T03:57:03.235Z,11.83
2018-12-25T03:59:30.586Z,11.77
2018-12-25T04:01:58.007Z,13.27
2018-12-25T04:04:25.492Z,13.30
2018-12-25T04:06:52.961Z,13.27
2018-12-25T04:09:20.447Z,12.63
2018-12-25T04:11:47.793Z,13.40
2018-12-25T04:14:15.252Z,13.40
2018-12-25T04:16:43.608Z,13.67
2018-12-25T04:19:11.029Z,13.90
2018-12-25T04:21:38.679Z,15.20
2018-12-25T04:24:06.142Z,13.40
2018-12-25T04:26:33.529Z,12.00
2018-12-25T04:29:00.896Z,12.10
2018-12-25T04:31:29.436Z,10.77
2018-12-25T04:33:56.828Z,10.77
2018-12-25T04:36:24.243Z,10.53
2018-12-25T04:38:51.708Z,10.53
2018-12-25T04:41:19.045Z,10.73
2018-12-25T04:43:46.403Z,11.07
2018-12-25T04:46:13.820Z,10.70
2018-12-25T04:48:41.255Z,10.37
2018-12-25T04:51:08.652Z,11.33
2018-12-25T04:53:38.965Z,10.83
2018-12-25T04:56:06.942Z,9.80
2018-12-25T04:58:34.418Z,10.60
2018-12-25T05:01:01.808Z,12.53
2018-12-25T05:03:29.172Z,11.57
2018-12-25T05:05:56.634Z,11.17
2018-12-25T05:08:24.044Z,12.80
2018-12-25T05:10:51.774Z,11.40
2018-12-25T05:13:19.222Z,12.63
2018-12-25T05:15:46.674Z,13.80
2018-12-25T05:18:14.014Z,13.20
2018-12-25T05:20:41.742Z,12.13
2018-12-25T05:23:09.123Z,12.07
2018-12-25T05:25:36.453Z,13.10
2018-12-25T05:28:03.882Z,15.07
2018-12-25T05:30:31.430Z,17.60
2018-12-25T05:32:58.856Z,15.83
2018-12-25T05:35:26.304Z,15.43
2018-12-25T05:37:53.772Z,14.30
2018-12-25T05:40:21.167Z,13.07
2018-12-25T05:42:48.480Z,12.93
2018-12-25T05:45:17.568Z,13.60
2018-12-25T05:47:45.272Z,11.97
2018-12-25T05:50:12.604Z,12.20
2018-12-25T05:52:40.086Z,14.33
2018-12-25T05:55:07.438Z,14.40
2018-12-25T05:57:34.788Z,14.63
2018-12-25T06:00:02.393Z,15.03
2018-12-25T06:02:29.820Z,14.33
2018-12-25T06:04:57.147Z,15.93
2018-12-25T06:07:24.588Z,16.27
2018-12-25T06:09:52.049Z,18.40
2018-12-25T06:12:19.470Z,17.13
2018-12-25T06:14:47.438Z,18.40
2018-12-25T06:17:14.924Z,18.70
2018-12-25T06:19:42.324Z,20.03
2018-12-25T06:22:09.814Z,19.70
2018-12-25T06:24:37.147Z,17.57
2018-12-25T06:27:04.544Z,17.80
2018-12-25T06:29:31.923Z,18.73
2018-12-25T06:31:59.412Z,17.83
2018-12-25T06:34:26.753Z,17.63
2018-12-25T06:36:54.272Z,17.13
2018-12-25T06:39:21.673Z,16.13
2018-12-25T06:41:50.625Z,17.10
2018-12-25T06:44:18.094Z,16.50
2018-12-25T06:46:45.442Z,17.53
2018-12-25T06:49:12.798Z,17.53
2018-12-25T06:51:40.173Z,17.87
2018-12-25T06:54:07.872Z,17.37
2018-12-25T06:56:35.213Z,16.53
2018-12-25T06:59:02.831Z,17.23
2018-12-25T07:01:30.100Z,17.17
2018-12-25T07:03:57.457Z,19.70
2018-12-25T07:06:25.146Z,19.20
2018-12-25T07:08:52.504Z,17.97
2018-12-25T07:11:19.908Z,18.50
2018-12-25T07:13:47.358Z,18.33
2018-12-25T07:16:14.823Z,19.90
2018-12-25T07:18:42.237Z,19.07
2018-12-25T07:21:12.227Z,19.57
2018-12-25T07:23:38.697Z,21.33
2018-12-25T07:26:06.086Z,21.53
2018-12-25T07:28:34.912Z,21.90
2018-12-25T07:31:02.399Z,23.67
2018-12-25T07:33:29.729Z,23.17
2018-12-25T07:35:57.203Z,22.80
2018-12-25T07:38:30.220Z,24.67
2018-12-25T07:40:58.162Z,22.70
2018-12-25T07:43:26.027Z,24.57
2018-12-25T07:45:53.633Z,25.70
2018-12-25T07:48:25.086Z,25.77
2018-12-25T07:50:52.807Z,25.23
2018-12-25T07:53:20.267Z,27.57
2018-12-25T07:56:19.155Z,26.70
2018-12-25T07:58:46.846Z,26.73
2018-12-25T08:01:14.290Z,26.00
2018-12-25T08:03:41.749Z,27.47
2018-12-25T08:06:25.798Z,27.13
2018-12-25T08:08:47.020Z,28.17
2018-12-25T08:11:14.564Z,28.93
2018-12-25T08:13:50.351Z,30.17
2018-12-25T08:16:15.125Z,30.23
2018-12-25T08:18:56.192Z,30.67
2018-12-25T08:21:29.358Z,26.93
2018-12-25T08:23:55.804Z,24.63
2018-12-25T08:26:28.077Z,24.33
2018-12-25T08:28:55.147Z,25.00
2018-12-25T08:31:22.787Z,25.17
2018-12-25T08:33:54.647Z,24.97
2018-12-25T08:36:22.033Z,23.37
2018-12-25T08:38:49.698Z,23.73
2018-12-25T08:41:17.112Z,27.53
2018-12-25T08:43:46.320Z,30.23
2018-12-25T08:46:13.817Z,31.80
2018-12-25T08:48:41.157Z,35.07
2018-12-25T08:51:09.530Z,36.57
2018-12-25T08:53:36.989Z,38.40
2018-12-25T08:56:04.511Z,37.50
2018-12-25T08:58:33.598Z,32.17
2018-12-25T09:01:01.053Z,29.07
2018-12-25T09:03:28.408Z,29.73
2018-12-25T09:06:06.117Z,31.30
2018-12-25T09:08:34.806Z,29.40
2018-12-25T09:11:03.908Z,29.00
2018-12-25T09:13:30.420Z,29.27
2018-12-25T09:15:57.875Z,27.50
2018-12-25T09:18:25.385Z,27.03
2018-12-25T09:20:55.600Z,27.50
2018-12-25T09:23:33.710Z,26.70
2018-12-25T09:25:58.388Z,24.60
2018-12-25T09:28:31.143Z,26.60
2018-12-25T09:30:58.597Z,26.10
2018-12-25T09:33:26.052Z,24.37
2018-12-25T09:35:53.392Z,26.07
2018-12-25T09:38:20.952Z,28.97
2018-12-25T09:40:48.431Z,31.53
2018-12-25T09:43:15.898Z,31.40
2018-12-25T09:45:43.442Z,30.10
2018-12-25T09:48:13.523Z,28.90
2018-12-25T09:50:43.070Z,32.03
2018-12-25T09:53:12.252Z,32.90
2018-12-25T09:55:39.668Z,31.37
2018-12-25T09:58:07.062Z,29.77
2018-12-25T10:00:38.322Z,29.80
2018-12-25T10:03:05.836Z,28.70
2018-12-25T10:05:36.657Z,32.87
2018-12-25T10:08:06.271Z,32.60
2018-12-25T10:10:41.566Z,36.63
2018-12-25T10:13:10.117Z,33.77
2018-12-25T10:15:52.328Z,36.03
2018-12-25T10:18:21.843Z,38.17
2018-12-25T10:20:49.238Z,36.87
2018-12-25T10:23:18.211Z,38.37
2018-12-25T10:25:45.773Z,37.07
2018-12-25T10:28:14.603Z,39.70
2018-12-25T10:30:41.924Z,39.33
2018-12-25T10:33:09.326Z,44.90
2018-12-25T10:35:38.521Z,43.27
2018-12-25T10:38:06.063Z,41.83
2018-12-25T10:40:41.183Z,45.60
2018-12-25T10:43:08.593Z,42.67
2018-12-25T10:45:36.160Z,44.10
2018-12-25T10:48:04.670Z,42.23
2018-12-25T10:50:32.100Z,40.93
2018-12-25T10:52:59.565Z,39.07
2018-12-25T10:55:27.189Z,39.23
2018-12-25T10:57:54.680Z,41.87
2018-12-25T11:00:23.020Z,39.80
2018-12-25T11:02:50.510Z,38.23
2018-12-25T11:05:22.136Z,35.40
2018-12-25T11:07:52.757Z,35.90
2018-12-25T11:10:21.864Z,33.60
2018-12-25T11:12:49.347Z,33.80
2018-12-25T11:15:16.878Z,31.60
2018-12-25T11:17:44.525Z,32.03
2018-12-25T11:20:15.200Z,32.27
2018-12-25T11:22:42.659Z,30.73
2018-12-25T11:25:10.207Z,28.10
2018-12-25T11:27:37.719Z,30.17
2018-12-25T11:30:06.131Z,29.60
2018-12-25T11:32:33.993Z,27.33
2018-12-25T11:35:01.433Z,29.47
2018-12-25T11:37:28.804Z,32.77
2018-12-25T11:39:56.241Z,32.77
2018-12-25T11:42:23.637Z,35.17
2018-12-25T11:45:03.853Z,36.90
2018-12-25T11:47:31.259Z,33.77
2018-12-25T11:49:58.721Z,32.57
2018-12-25T11:52:28.509Z,31.90
2018-12-25T11:54:56.180Z,31.87
2018-12-25T11:57:23.760Z,30.23
2018-12-25T11:59:51.345Z,29.13
2018-12-25T12:02:18.737Z,29.83
2018-12-25T12:08:10.905Z,30.93
2018-12-25T12:10:38.409Z,33.60
2018-12-25T12:15:26.071Z,32.43
2018-12-25T12:16:28.762Z,31.83
2018-12-25T12:18:56.027Z,31.60
2018-12-25T12:21:34.186Z,36.40
2018-12-25T12:24:04.605Z,37.10
2018-12-25T12:26:32.112Z,33.43
2018-12-25T12:29:07.235Z,33.43
2018-12-25T12:31:33.533Z,30.87
2018-12-25T12:34:36.966Z,35.07
2018-12-25T12:37:04.964Z,33.67
2018-12-25T12:42:36.281Z,31.33
2018-12-25T12:45:55.351Z,31.17
2018-12-25T12:51:09.410Z,40.52
2018-12-25T13:11:28.491Z,27.63
2018-12-25T13:14:10.663Z,28.90
2018-12-25T13:25:02.011Z,28.00
2018-12-25T13:27:57.487Z,25.30
2018-12-25T13:28:42.625Z,27.67
2018-12-25T13:30:33.972Z,25.33
2018-12-25T13:33:04.583Z,25.20
2018-12-25T13:38:49.148Z,25.67
2018-12-25T13:45:04.823Z,26.73
2018-12-25T13:47:33.913Z,24.43
2018-12-25T13:50:05.845Z,25.97
2018-12-25T13:52:47.687Z,24.07
2018-12-25T13:55:05.318Z,24.93
2018-12-25T13:57:32.858Z,23.77
2018-12-25T14:00:00.443Z,23.97
2018-12-25T14:02:31.287Z,23.73
2018-12-25T14:04:58.919Z,27.30
2018-12-25T14:07:30.894Z,28.83
2018-12-25T14:10:10.828Z,28.73
2018-12-25T14:12:46.829Z,28.47
2018-12-25T14:15:13.111Z,32.00
2018-12-25T14:17:48.235Z,30.93
2018-12-25T14:20:17.369Z,30.83
2018-12-25T14:22:49.538Z,32.23
2018-12-25T14:25:30.278Z,30.87
2018-12-25T14:28:01.016Z,30.70
2018-12-25T14:30:31.037Z,29.83
2018-12-25T14:33:00.010Z,30.80
2018-12-25T14:35:27.996Z,33.73
2018-12-25T14:37:59.443Z,33.60
2018-12-25T14:40:32.381Z,34.93
2018-12-25T14:43:00.084Z,36.40
2018-12-25T14:45:29.189Z,33.13
2018-12-25T14:47:56.875Z,32.60
2018-12-25T14:50:27.590Z,32.33
2018-12-25T14:52:55.039Z,32.33
2018-12-25T14:55:22.811Z,36.67
2018-12-25T14:57:50.459Z,32.90
2018-12-25T15:00:22.675Z,34.47
2018-12-25T15:04:27.888Z,35.97
2018-12-25T15:05:31.020Z,35.20
2018-12-25T15:08:14.832Z,37.17
2018-12-25T15:10:35.094Z,39.33
2018-12-25T15:13:09.942Z,37.03
2018-12-25T15:15:45.558Z,37.20
2018-12-25T15:18:23.686Z,37.33
2018-12-25T15:20:54.145Z,38.30
2018-12-25T15:23:28.171Z,37.97
2018-12-25T15:25:52.613Z,37.07
2018-12-25T15:28:24.795Z,36.87
2018-12-25T15:31:13.875Z,37.20
2018-12-25T15:33:47.804Z,38.77
2018-12-25T15:36:16.946Z,40.50
2018-12-25T15:38:44.574Z,42.67
2018-12-25T15:41:17.502Z,39.33
2018-12-25T15:43:47.805Z,35.53
2018-12-25T15:46:30.455Z,33.40
2018-12-25T15:48:45.932Z,34.13
2018-12-25T15:51:20.967Z,33.60
2018-12-25T15:53:50.428Z,32.77
2018-12-25T15:56:22.920Z,32.00
2018-12-25T15:58:49.760Z,30.87
2018-12-25T16:01:18.880Z,33.60
2018-12-25T16:03:46.352Z,31.40
2018-12-25T16:06:16.004Z,32.90
2018-12-25T16:08:45.122Z,31.17
2018-12-25T16:11:12.574Z,30.47
2018-12-25T16:13:43.234Z,32.27
2018-12-25T16:16:10.844Z,31.90
2018-12-25T16:18:38.338Z,31.57
2018-12-25T16:21:05.795Z,31.07
2018-12-25T16:23:33.481Z,28.10
2018-12-25T16:26:02.517Z,29.97
2018-12-25T16:28:31.661Z,29.10
2018-12-25T16:30:59.227Z,27.17
2018-12-25T16:33:26.697Z,29.33
2018-12-25T16:35:56.687Z,27.43
2018-12-25T16:38:24.219Z,31.70
2018-12-25T16:40:51.682Z,28.83
2018-12-25T16:43:19.185Z,28.63
2018-12-25T16:45:46.739Z,27.30
2018-12-25T16:48:14.293Z,28.23
2018-12-25T16:50:41.797Z,28.73
2018-12-25T16:53:15.447Z,28.63
2018-12-25T16:55:38.667Z,28.23
2018-12-25T16:58:06.264Z,28.60
2018-12-25T17:00:35.465Z,27.60
2018-12-25T17:03:02.987Z,27.47
2018-12-25T17:05:36.278Z,30.87
2018-12-25T17:08:06.341Z,28.73
2018-12-25T17:10:35.443Z,28.63
2018-12-25T17:13:04.601Z,28.07
2018-12-25T17:15:35.152Z,27.93
2018-12-25T17:18:05.468Z,25.87
2018-12-25T17:20:33.407Z,28.73
2018-12-25T17:23:00.844Z,25.23
2018-12-25T17:25:28.317Z,26.60
2018-12-25T17:27:55.716Z,27.30
2018-12-25T17:30:24.814Z,28.50
2018-12-25T17:32:52.406Z,25.40
2018-12-25T17:35:19.862Z,23.03
2018-12-25T17:37:48.834Z,23.33
2018-12-25T17:40:16.228Z,22.73
2018-12-25T17:42:44.200Z,23.60
2018-12-25T17:45:13.343Z,24.20
2018-12-25T17:47:40.846Z,23.50
2018-12-25T17:50:08.337Z,22.43
2018-12-25T17:52:35.992Z,24.00
2018-12-25T17:55:03.531Z,23.10
2018-12-25T17:57:31.037Z,21.97
2018-12-25T17:59:58.666Z,25.07
2018-12-25T18:02:29.006Z,26.00
2018-12-25T18:04:56.607Z,25.40
2018-12-25T18:07:24.116Z,22.47
2018-12-25T18:09:51.622Z,22.67
2018-12-25T18:12:18.987Z,19.83
2018-12-25T18:14:49.196Z,23.23
2018-12-25T18:17:18.895Z,24.17
2018-12-25T18:19:48.875Z,23.80
2018-12-25T18:22:18.124Z,23.17
2018-12-25T18:24:46.098Z,20.00
2018-12-25T18:27:13.606Z,20.17
2018-12-25T18:29:41.556Z,18.20
2018-12-25T18:32:10.212Z,18.37
2018-12-25T18:34:37.669Z,18.07
2018-12-25T18:37:05.230Z,18.37
2018-12-25T18:39:32.766Z,20.93
2018-12-25T18:42:00.344Z,18.63
2018-12-25T18:44:29.437Z,19.90
2018-12-25T18:46:57.026Z,17.97
2018-12-25T18:49:24.522Z,17.43
2018-12-25T18:51:52.621Z,19.83
2018-12-25T18:54:27.592Z,21.47
2018-12-25T18:56:49.378Z,19.13
2018-12-25T18:59:18.473Z,18.70
2018-12-25T19:01:47.602Z,18.43
2018-12-25T19:04:15.114Z,19.37
2018-12-25T19:06:44.679Z,21.50
2018-12-25T19:09:12.456Z,25.90
2018-12-25T19:11:43.688Z,23.33
2018-12-25T19:14:12.588Z,21.43
2018-12-25T19:16:41.778Z,22.97
2018-12-25T19:19:12.276Z,22.23
2018-12-25T19:21:41.575Z,23.33
2018-12-25T19:24:12.233Z,20.00
2018-12-25T19:26:41.334Z,20.77
2018-12-25T19:29:10.185Z,17.60
2018-12-25T19:31:37.705Z,14.93
2018-12-25T19:34:05.215Z,19.10
2018-12-25T19:36:34.512Z,14.47
2018-12-25T19:39:05.174Z,18.93
2018-12-25T19:41:34.443Z,20.33
2018-12-25T19:44:04.283Z,20.90
2018-12-25T19:46:38.963Z,20.20
2018-12-25T19:49:06.647Z,20.40
2018-12-25T19:51:35.161Z,17.87
2018-12-25T19:54:03.510Z,18.53
2018-12-25T19:56:33.606Z,19.27
2018-12-25T19:59:01.208Z,17.93
2018-12-25T20:01:30.933Z,21.27
2018-12-25T20:03:58.485Z,19.37
2018-12-25T20:06:33.657Z,20.13
2018-12-25T20:09:16.210Z,17.73
2018-12-25T20:11:45.353Z,18.13
2018-12-25T20:14:32.450Z,16.93
2018-12-25T20:17:38.717Z,13.83
2018-12-25T20:20:25.821Z,16.10
2018-12-25T20:22:54.960Z,16.97
2018-12-25T20:25:26.879Z,17.53
2018-12-25T20:28:15.057Z,19.77
2018-12-25T20:31:18.362Z,19.77
2018-12-25T20:33:49.998Z,15.77
2018-12-25T20:36:19.099Z,17.47
2018-12-25T20:38:56.950Z,20.50
2018-12-25T20:41:35.438Z,17.90
2018-12-25T20:44:15.262Z,17.27
2018-12-25T20:46:46.910Z,18.97
2018-12-25T20:49:32.669Z,16.87
2018-12-25T20:52:04.709Z,17.93
2018-12-25T20:54:48.079Z,17.20
2018-12-25T20:57:17.032Z,22.77
2018-12-25T21:00:02.512Z,22.00
2018-12-25T21:02:34.399Z,19.17
2018-12-25T21:05:03.479Z,22.47
2018-12-25T21:07:35.311Z,17.40
2018-12-25T21:10:09.512Z,19.20
2018-12-25T21:12:38.664Z,20.50
2018-12-25T21:15:24.218Z,21.30
2018-12-25T21:18:10.284Z,19.70
2018-12-25T21:20:55.779Z,19.50
2018-12-25T21:23:41.314Z,17.33
2018-12-25T21:26:27.104Z,16.43
2018-12-25T21:28:54.904Z,18.57
2018-12-25T21:31:22.360Z,17.47
2018-12-25T21:33:49.920Z,19.37
2018-12-25T21:36:19.036Z,17.97
2018-12-25T21:38:46.491Z,18.53
2018-12-25T21:41:13.935Z,20.53
2018-12-25T21:43:41.431Z,23.73
2018-12-25T21:46:08.835Z,21.57
2018-12-25T21:48:36.335Z,22.57
2018-12-25T21:51:05.453Z,23.07
2018-12-25T21:53:32.858Z,22.23
2018-12-25T21:56:00.286Z,25.57
2018-12-25T21:58:27.911Z,25.37
2018-12-25T22:00:55.333Z,26.60
2018-12-25T22:03:22.903Z,25.90
2018-12-25T22:05:50.446Z,26.30
2018-12-25T22:08:20.686Z,25.70
2018-12-25T22:10:48.191Z,25.77
2018-12-25T22:13:15.681Z,24.30
2018-12-25T22:15:43.245Z,25.37
2018-12-25T22:18:10.851Z,26.10
2018-12-25T22:20:38.384Z,26.00
2018-12-25T22:23:05.839Z,27.20
2018-12-25T22:25:33.229Z,27.37
2018-12-25T22:28:00.747Z,27.60
2018-12-25T22:30:28.334Z,26.97
2018-12-25T22:32:57.876Z,26.57
2018-12-25T22:35:26.563Z,25.87
2018-12-25T22:37:54.036Z,25.13
2018-12-25T22:40:21.422Z,25.73
2018-12-25T22:42:48.970Z,24.23
2018-12-25T22:45:18.344Z,26.17
2018-12-25T22:47:45.580Z,25.03
2018-12-25T22:50:13.108Z,24.67
2018-12-25T22:52:42.960Z,23.23
2018-12-25T22:55:10.412Z,24.17
2018-12-25T22:57:37.872Z,24.23
2018-12-25T23:00:08.105Z,23.40
2018-12-25T23:02:37.312Z,24.50
2018-12-25T23:05:07.596Z,24.03
2018-12-25T23:07:37.480Z,23.33
2018-12-25T23:10:08.785Z,23.03
2018-12-25T23:12:36.269Z,22.43
2018-12-25T23:15:04.166Z,22.63
2018-12-25T23:17:31.526Z,23.00
2018-12-25T23:19:58.929Z,22.53
2018-12-25T23:22:26.426Z,21.87
2018-12-25T23:24:53.919Z,22.03
2018-12-25T23:27:21.425Z,20.53
2018-12-25T23:29:48.807Z,21.40
2018-12-25T23:32:16.298Z,21.03
2018-12-25T23:34:45.362Z,18.83
2018-12-25T23:37:12.829Z,19.17
2018-12-25T23:39:40.273Z,19.67
2018-12-25T23:42:07.888Z,19.87
2018-12-25T23:44:35.289Z,19.00
2018-12-25T23:47:02.772Z,19.83
2018-12-25T23:49:30.260Z,18.77
2018-12-25T23:52:09.913Z,18.60
2018-12-25T23:54:28.513Z,20.67
2018-12-25T23:56:56.173Z,21.20
2018-12-25T23:59:23.718Z,22.70
